Time;durP1;ratioP1;P1;durP2;ratioP2;P2;SDS_P1;SDS_P2;PMS_P1;PMS_P2;Temp;Humidity;BMP_temperature;BMP_pressure;BME280_temperature;BME280_humidity;BME280_pressure;Samples;Min_cycle;Max_cycle;Signal;HPM_P1;HPM_P2
2021/03/11 00:00:38;;;;;;;23.70;19.62;;;;;;;-1.61;76.27;98840.93;1703189;84;21454;-73
2021/03/11 00:03:20;;;;;;;25.17;20.35;;;;;;;-1.60;76.24;98840.05;1727897;82;20940;-73
2021/03/11 00:05:47;;;;;;;25.02;20.15;;;;;;;-1.60;76.20;98827.34;1733480;82;21476;-73
2021/03/11 00:08:16;;;;;;;23.20;19.15;;;;;;;-1.60;76.23;98833.47;1733510;82;21074;-74
2021/03/11 00:10:44;;;;;;;26.68;18.75;;;;;;;-1.59;76.26;98829.95;1733505;82;22437;-74
2021/03/11 00:13:12;;;;;;;25.90;19.48;;;;;;;-1.60;76.27;98827.34;1733549;82;21420;-74
2021/03/11 00:15:41;;;;;;;27.10;18.70;;;;;;;-1.60;76.31;98825.56;1733512;82;20959;-74
2021/03/11 00:18:10;;;;;;;29.77;20.32;;;;;;;-1.60;76.36;98830.83;1733530;82;21476;-74
2021/03/11 00:20:37;;;;;;;24.92;17.55;;;;;;;-1.60;76.34;98825.56;1734893;82;21003;-73
2021/03/11 00:23:08;;;;;;;25.00;18.80;;;;;;;-1.60;76.24;98820.30;1734950;82;21393;-72
2021/03/11 00:25:37;;;;;;;19.35;17.27;;;;;;;-1.59;76.13;98818.09;1734740;82;21456;-72
2021/03/11 00:28:05;;;;;;;22.65;17.23;;;;;;;-1.61;76.08;98814.59;1734711;82;20939;-72
2021/03/11 00:30:35;;;;;;;18.05;16.10;;;;;;;-1.62;76.10;98815.50;1734302;82;20915;-72
2021/03/11 00:33:03;;;;;;;21.10;17.55;;;;;;;-1.62;76.00;98820.77;1734391;81;20935;-72
2021/03/11 00:35:31;;;;;;;23.87;19.42;;;;;;;-1.64;76.04;98820.79;1734295;82;21447;-74
2021/03/11 00:38:05;;;;;;;;;;;;;;;-1.64;76.08;98820.79;1736185;82;20916;-73
2021/03/11 00:40:33;;;;;;;21.77;17.10;;;;;;;-1.64;76.03;98814.63;1733709;82;20135;-73
2021/03/11 00:43:11;;;;;;;19.30;17.00;;;;;;;-1.67;75.94;98805.45;1733613;82;20972;-75
2021/03/11 00:45:47;;;;;;;21.23;17.27;;;;;;;-1.67;75.94;98802.81;1733611;82;21002;-72
2021/03/11 00:48:12;;;;;;;21.57;16.48;;;;;;;-1.69;75.92;98800.23;1733765;82;21384;-74
2021/03/11 00:50:41;;;;;;;26.40;19.35;;;;;;;-1.68;75.89;98804.59;1725702;82;20990;-75
2021/03/11 00:53:10;;;;;;;19.85;16.50;;;;;;;-1.70;75.83;98805.52;1725694;82;21023;-74
2021/03/11 00:55:40;;;;;;;26.37;19.20;;;;;;;-1.70;75.98;98805.52;1726057;82;20976;-73
2021/03/11 00:58:07;;;;;;;20.70;17.35;;;;;;;-1.72;76.08;98794.12;1733720;82;21007;-74
2021/03/11 01:00:36;;;;;;;22.32;18.12;;;;;;;-1.72;76.23;98794.12;1733656;82;21461;-74
2021/03/11 01:03:07;;;;;;;22.25;17.40;;;;;;;-1.74;76.30;98793.27;1723989;81;20960;-74
2021/03/11 01:05:37;;;;;;;23.12;17.98;;;;;;;-1.74;76.25;98786.23;1714743;83;21056;-74
2021/03/11 01:08:17;;;;;;;19.90;16.48;;;;;;;-1.75;76.33;98777.93;1707938;83;20936;-73
2021/03/11 01:10:45;;;;;;;20.65;18.42;;;;;;;-1.75;76.29;98783.63;1707973;84;21482;-74
2021/03/11 01:13:12;;;;;;;22.60;17.55;;;;;;;-1.76;76.24;98780.58;1707947;82;21808;-73
2021/03/11 01:15:41;;;;;;;22.65;18.95;;;;;;;-1.77;76.34;98774.87;1707871;83;21020;-72
2021/03/11 01:18:12;;;;;;;18.48;15.88;;;;;;;-1.78;76.39;98770.50;1707884;84;21000;-73
2021/03/11 01:20:42;;;;;;;19.65;17.52;;;;;;;-1.80;76.51;98761.75;1707819;84;20945;-73
2021/03/11 01:23:10;;;;;;;20.95;17.87;;;;;;;-1.80;76.51;98765.25;1707891;84;20941;-72
2021/03/11 01:25:38;;;;;;;19.27;17.10;;;;;;;-1.82;76.57;98761.77;1707812;84;21880;-73
2021/03/11 01:28:06;;;;;;;19.02;15.55;;;;;;;-1.83;76.68;98763.55;1707815;84;21048;-72
2021/03/11 01:30:35;;;;;;;26.55;18.80;;;;;;;-1.82;76.68;98756.05;1707926;83;21373;-73
2021/03/11 01:33:03;;;;;;;27.35;20.57;;;;;;;-1.83;76.58;98743.80;1707784;84;20945;-73
2021/03/11 01:35:31;;;;;;;20.57;16.90;;;;;;;-1.83;76.48;98750.37;1708010;83;21374;-73
2021/03/11 01:37:59;;;;;;;26.73;20.17;;;;;;;-1.83;76.49;98749.06;1707876;82;21804;-73
2021/03/11 01:40:26;;;;;;;25.37;20.00;;;;;;;-1.84;76.36;98743.36;1707742;84;21028;-73
2021/03/11 01:42:54;;;;;;;31.27;21.27;;;;;;;-1.85;76.47;98737.66;1707809;82;20957;-73
2021/03/11 01:45:22;;;;;;;28.57;21.23;;;;;;;-1.84;76.41;98731.52;1707797;84;20933;-73
2021/03/11 01:47:50;;;;;;;27.22;19.70;;;;;;;-1.83;76.36;98734.58;1707918;83;21422;-73
2021/03/11 01:50:18;;;;;;;23.45;19.70;;;;;;;-1.83;76.42;98733.69;1707802;84;21387;-73
2021/03/11 01:52:47;;;;;;;24.82;19.95;;;;;;;-1.81;76.29;98726.66;1707870;84;20956;-74
2021/03/11 01:55:15;;;;;;;19.98;16.85;;;;;;;-1.80;76.27;98732.78;1707887;84;20941;-74
2021/03/11 01:57:42;;;;;;;24.70;18.23;;;;;;;-1.83;76.19;98721.42;1707762;84;20932;-74
2021/03/11 02:00:14;;;;;;;30.10;20.27;;;;;;;-1.84;76.07;98722.30;1686247;84;21489;-74
2021/03/11 02:02:42;;;;;;;21.15;17.55;;;;;;;-1.83;76.16;98719.20;1707630;82;21374;-73
2021/03/11 02:05:13;;;;;;;25.50;19.42;;;;;;;-1.84;76.03;98717.03;1707475;84;21044;-73
2021/03/11 02:07:42;;;;;;;25.90;19.10;;;;;;;-1.85;76.01;98720.55;1707657;84;21402;-74
2021/03/11 02:10:12;;;;;;;28.07;19.95;;;;;;;-1.85;75.94;98730.22;1707531;84;21032;-74
2021/03/11 02:13:10;;;;;;;31.20;20.77;;;;;;;-1.88;75.98;98731.12;1707596;84;20961;-74
2021/03/11 02:15:44;;;;;;;30.82;20.35;;;;;;;-1.90;76.03;98736.00;1707616;84;21370;-73
2021/03/11 02:18:33;;;;;;;31.17;20.70;;;;;;;-1.92;76.31;98737.34;1707575;84;20965;-73
2021/03/11 02:21:11;;;;;;;32.73;21.15;;;;;;;-1.93;76.34;98742.17;1689026;84;20960;-73
2021/03/11 02:24:28;;;;;;;27.20;21.23;;;;;;;-1.94;76.44;98744.40;1707606;84;21565;-74
2021/03/11 02:27:26;;;;;;;36.42;23.50;;;;;;;-1.93;76.54;98737.36;1707593;84;21044;-73
2021/03/11 02:29:54;;;;;;;32.05;23.15;;;;;;;-1.93;76.49;98731.64;1685843;84;21210;-73
2021/03/11 02:32:23;;;;;;;32.75;21.62;;;;;;;-1.93;76.48;98730.32;1707467;84;20968;-72
2021/03/11 02:34:57;;;;;;;30.45;22.20;;;;;;;-1.92;76.54;98741.75;1686212;84;20944;-74
2021/03/11 02:37:37;;;;;;;30.85;22.25;;;;;;;-1.91;76.56;98736.42;1707738;84;20973;-73
2021/03/11 02:40:26;;;;;;;30.27;21.15;;;;;;;-1.90;76.51;98735.55;1707784;84;20961;-74
2021/03/11 02:42:54;;;;;;;25.43;21.25;;;;;;;-1.87;76.45;98739.45;1707734;82;21871;-73
2021/03/11 02:45:31;;;;;;;25.37;18.20;;;;;;;-1.85;76.13;98745.56;1707401;84;20949;-73
2021/03/11 02:48:05;;;;;;;21.30;18.80;;;;;;;-1.85;75.88;98751.28;1707592;84;20957;-73
2021/03/11 02:50:35;;;;;;;;;;;;;;;-1.87;75.76;98747.35;1710069;84;20897;-73
2021/03/11 02:53:08;;;;;;;27.87;19.80;;;;;;;-1.87;75.78;98746.03;1686285;84;20387;-73
2021/03/11 02:55:40;;;;;;;24.72;19.07;;;;;;;-1.89;75.96;98744.30;1685202;84;22301;-73
2021/03/11 02:58:11;;;;;;;24.00;18.52;;;;;;;-1.90;76.03;98736.86;1707471;84;21020;-73
2021/03/11 03:00:40;;;;;;;27.05;18.60;;;;;;;-1.90;75.84;98736.86;1707402;84;21039;-73
2021/03/11 03:03:09;;;;;;;33.05;19.85;;;;;;;-1.90;75.67;98736.86;1708795;83;21001;-73
2021/03/11 03:05:38;;;;;;;26.45;21.40;;;;;;;-1.91;75.83;98731.16;1707898;84;21020;-73
2021/03/11 03:08:06;;;;;;;24.47;20.10;;;;;;;-1.90;75.83;98735.55;1707917;82;21681;-73
2021/03/11 03:10:35;;;;;;;25.82;20.55;;;;;;;-1.89;75.87;98730.72;1707774;84;20961;-73
2021/03/11 03:13:11;;;;;;;27.77;21.10;;;;;;;-1.88;75.74;98733.75;1707910;84;20973;-74
2021/03/11 03:15:39;;;;;;;30.65;22.02;;;;;;;-1.87;75.78;98727.61;1707611;84;21003;-73
2021/03/11 03:18:07;;;;;;;26.02;21.48;;;;;;;-1.86;75.81;98729.36;1707864;83;21032;-73
2021/03/11 03:20:35;;;;;;;30.30;20.88;;;;;;;-1.85;75.84;98724.95;1663527;84;22297;-72
2021/03/11 03:23:04;;;;;;;29.80;22.67;;;;;;;-1.84;75.96;98726.70;1707658;84;20953;-73
2021/03/11 03:25:34;;;;;;;26.97;20.77;;;;;;;-1.84;75.88;98713.54;1706444;84;21095;-73
2021/03/11 03:28:03;;;;;;;27.30;20.30;;;;;;;-1.84;76.00;98722.30;1707766;83;20901;-73
2021/03/11 03:30:30;;;;;;;27.95;19.75;;;;;;;-1.81;76.00;98726.66;1707896;83;20953;-73
2021/03/11 03:32:59;;;;;;;24.35;20.20;;;;;;;-1.78;75.72;98729.67;1707813;82;21889;-73
2021/03/11 03:35:27;;;;;;;28.50;20.52;;;;;;;-1.77;75.57;98722.21;1707714;84;21409;-73
2021/03/11 03:37:55;;;;;;;26.37;20.37;;;;;;;-1.76;75.55;98719.56;1707801;84;21004;-73
2021/03/11 03:40:25;;;;;;;23.12;19.60;;;;;;;-1.73;75.57;98716.02;1707714;84;20905;-73
2021/03/11 03:43:11;;;;;;;24.37;20.80;;;;;;;-1.72;75.57;98714.68;1707801;84;20929;-73
2021/03/11 03:45:54;;;;;;;29.05;22.05;;;;;;;-1.70;75.40;98706.30;1707752;84;21382;-72
2021/03/11 03:48:31;;;;;;;23.75;20.57;;;;;;;-1.68;75.28;98703.65;1707671;84;20952;-73
2021/03/11 03:51:01;;;;;;;24.87;20.32;;;;;;;-1.67;75.32;98700.98;1707783;84;20964;-73
2021/03/11 03:53:34;;;;;;;32.08;22.58;;;;;;;-1.67;75.32;98702.73;1707681;81;21000;-74
2021/03/11 03:56:16;;;;;;;31.48;22.80;;;;;;;-1.67;75.26;98694.83;1687662;84;20957;-74
2021/03/11 03:58:47;;;;;;;26.50;19.62;;;;;;;-1.69;75.31;98692.25;1707741;84;21417;-72
2021/03/11 04:01:17;;;;;;;28.55;21.30;;;;;;;-1.69;75.47;98701.89;1707867;83;21047;-74
2021/03/11 04:03:46;;;;;;;27.82;21.62;;;;;;;-1.70;75.78;98697.55;1685263;84;20956;-73
2021/03/11 04:06:13;;;;;;;26.97;20.25;;;;;;;-1.70;75.94;98702.35;1677835;85;20964;-74
2021/03/11 04:08:42;;;;;;;27.13;19.70;;;;;;;-1.69;75.99;98697.94;1678047;85;20928;-73
2021/03/11 04:11:10;;;;;;;25.52;21.17;;;;;;;-1.69;76.03;98691.36;1677806;85;21834;-73
2021/03/11 04:13:37;;;;;;;23.85;19.92;;;;;;;-1.67;76.07;98689.56;1677782;84;21015;-74
2021/03/11 04:16:06;;;;;;;31.45;23.02;;;;;;;-1.66;76.03;98688.22;1653847;85;21505;-74
2021/03/11 04:18:34;;;;;;;25.12;22.02;;;;;;;-1.64;76.07;98684.25;1677770;85;21378;-75
2021/03/11 04:21:02;;;;;;;33.38;20.50;;;;;;;-1.65;76.14;98683.39;1677840;85;20932;-73
2021/03/11 04:23:31;;;;;;;25.40;21.97;;;;;;;-1.63;76.10;98682.05;1677850;85;21932;-73
2021/03/11 04:25:59;;;;;;;26.30;21.85;;;;;;;-1.64;76.22;98681.19;1656807;85;20999;-73
2021/03/11 04:28:27;;;;;;;26.85;22.32;;;;;;;-1.63;76.41;98679.41;1677869;85;21054;-73
2021/03/11 04:30:56;;;;;;;32.63;24.52;;;;;;;-1.60;76.45;98678.05;1677829;85;21035;-72
2021/03/11 04:33:24;;;;;;;33.75;26.07;;;;;;;-1.59;76.47;98677.59;1677842;85;20951;-74
2021/03/11 04:35:53;;;;;;;43.75;30.35;;;;;;;-1.57;76.44;98683.27;1677695;85;21382;-74
2021/03/11 04:38:22;;;;;;;36.15;26.45;;;;;;;-1.56;76.42;98685.02;1677896;85;20956;-74
2021/03/11 04:40:50;;;;;;;30.32;24.10;;;;;;;-1.54;76.40;98684.54;1656882;85;21556;-74
2021/03/11 04:43:18;;;;;;;30.25;23.83;;;;;;;-1.52;76.38;98682.74;1677756;85;20995;-74
2021/03/11 04:45:48;;;;;;;28.65;22.67;;;;;;;-1.51;76.33;98672.64;1677888;85;21393;-72
2021/03/11 04:48:15;;;;;;;27.70;22.05;;;;;;;-1.51;76.25;98670.00;1677897;85;22253;-74
2021/03/11 04:50:45;;;;;;;29.02;22.00;;;;;;;-1.49;76.32;98677.88;1656699;85;20979;-74
2021/03/11 04:53:16;;;;;;;29.02;22.80;;;;;;;-1.48;76.28;98670.41;1677947;84;21048;-73
2021/03/11 04:55:44;;;;;;;29.10;24.12;;;;;;;-1.47;76.23;98669.07;1677851;85;20945;-74
2021/03/11 04:58:12;;;;;;;28.10;22.07;;;;;;;-1.46;76.24;98673.42;1677902;85;21545;-75
2021/03/11 05:00:46;;;;;;;27.75;23.00;;;;;;;-1.45;76.27;98663.78;1635607;85;21829;-75
2021/03/11 05:03:13;;;;;;;24.25;21.60;;;;;;;-1.43;76.31;98665.92;1689557;84;20984;-76
2021/03/11 05:05:42;;;;;;;30.43;22.95;;;;;;;-1.43;76.25;98674.26;1707462;84;20953;-74
2021/03/11 05:08:10;;;;;;;27.00;21.90;;;;;;;-1.41;76.24;98673.34;1707468;84;21024;-73
2021/03/11 05:10:40;;;;;;;27.87;22.35;;;;;;;-1.40;76.21;98668.94;1707509;84;21032;-74
2021/03/11 05:13:09;;;;;;;28.62;22.48;;;;;;;-1.40;76.35;98670.26;1707469;83;21557;-75
2021/03/11 05:15:37;;;;;;;28.92;22.52;;;;;;;-1.39;76.25;98673.33;1707490;84;21445;-75
2021/03/11 05:18:05;;;;;;;32.23;22.65;;;;;;;-1.38;76.29;98675.08;1707571;84;20917;-75
2021/03/11 05:20:34;;;;;;;28.00;22.95;;;;;;;-1.37;76.30;98679.00;1707583;84;20940;-74
2021/03/11 05:23:04;;;;;;;29.75;23.62;;;;;;;-1.37;76.35;98677.69;1707332;82;20968;-75
2021/03/11 05:25:35;;;;;;;37.13;26.82;;;;;;;-1.33;76.35;98685.08;1707559;84;21821;-74
2021/03/11 05:28:03;;;;;;;32.55;24.52;;;;;;;-1.33;76.26;98682.45;1707666;84;20957;-74
2021/03/11 05:30:34;;;;;;;30.17;23.07;;;;;;;-1.33;76.34;98683.31;1707671;84;21379;-74
2021/03/11 05:33:03;;;;;;;29.77;23.20;;;;;;;-1.30;76.36;98681.08;1707569;84;21098;-74
2021/03/11 05:35:31;;;;;;;30.30;23.85;;;;;;;-1.29;76.25;98683.69;1707634;84;20985;-73
2021/03/11 05:38:00;;;;;;;26.50;23.25;;;;;;;-1.27;76.24;98692.89;1707543;84;21769;-75
2021/03/11 05:40:29;;;;;;;28.38;22.87;;;;;;;-1.25;76.15;98684.50;1684983;84;21482;-74
2021/03/11 05:42:58;;;;;;;35.13;23.90;;;;;;;-1.23;76.09;98680.09;1707554;84;21556;-74
2021/03/11 05:45:28;;;;;;;32.35;24.95;;;;;;;-1.22;76.07;98687.08;1708338;84;21410;-72
2021/03/11 05:47:57;;;;;;;32.50;24.23;;;;;;;-1.20;76.11;98688.38;1708486;84;21015;-73
2021/03/11 05:50:27;;;;;;;31.23;23.38;;;;;;;-1.17;76.06;98687.86;1708545;84;21828;-73
2021/03/11 05:52:58;;;;;;;31.93;24.47;;;;;;;-1.14;75.96;98685.17;1707883;84;21401;-75
2021/03/11 05:55:26;;;;;;;28.65;23.35;;;;;;;-1.11;75.91;98690.39;1707593;84;20961;-75
2021/03/11 05:57:54;;;;;;;29.10;23.70;;;;;;;-1.08;75.86;98702.66;1707598;84;21489;-74
2021/03/11 06:00:22;;;;;;;31.05;23.73;;;;;;;-1.06;75.82;98702.64;1707725;84;21473;-75
2021/03/11 06:02:58;;;;;;;38.80;23.77;;;;;;;-1.04;75.77;98693.81;1707336;84;21646;-74
2021/03/11 06:05:29;;;;;;;32.75;24.07;;;;;;;-1.00;75.73;98694.62;1707784;84;21032;-73
2021/03/11 06:07:57;;;;;;;32.42;23.90;;;;;;;-0.99;75.75;98699.02;1707899;84;21414;-75
2021/03/11 06:10:26;;;;;;;34.90;26.15;;;;;;;-0.96;75.71;98699.81;1707744;84;21071;-74
2021/03/11 06:12:54;;;;;;;41.15;27.17;;;;;;;-0.91;75.64;98707.64;1707941;81;21346;-75
2021/03/11 06:15:35;;;;;;;43.50;27.20;;;;;;;-0.90;75.75;98700.13;1707990;84;22061;-76
2021/03/11 06:18:07;;;;;;;48.50;29.07;;;;;;;-0.85;75.72;98704.90;1708026;84;20925;-74
2021/03/11 06:20:36;;;;;;;42.83;28.00;;;;;;;-0.80;75.59;98697.77;1708242;84;21600;-75
2021/03/11 06:23:04;;;;;;;48.63;30.43;;;;;;;-0.75;75.48;98695.90;1707847;84;21492;-75
2021/03/11 06:25:32;;;;;;;48.30;32.40;;;;;;;-0.70;75.44;98685.27;1707564;84;21035;-75
2021/03/11 06:28:02;;;;;;;49.77;31.25;;;;;;;-0.65;75.37;98687.81;1707811;82;21374;-77
2021/03/11 06:30:40;;;;;;;46.48;30.48;;;;;;;-0.60;75.42;98689.91;1707698;83;21067;-78
2021/03/11 06:33:11;;;;;;;48.08;31.68;;;;;;;-0.55;75.41;98686.28;1707607;84;20993;-71
2021/03/11 06:35:42;;;;;;;48.35;31.00;;;;;;;-0.53;75.19;98690.22;1707790;84;21015;-77
2021/03/11 06:38:27;;;;;;;43.45;30.60;;;;;;;-0.49;74.85;98692.33;1707741;84;21020;-77
2021/03/11 06:40:59;;;;;;;47.13;30.68;;;;;;;-0.49;74.59;98690.59;1707853;83;21378;-77
2021/03/11 06:43:27;;;;;;;49.83;29.00;;;;;;;-0.53;74.72;98692.86;1707718;83;21023;-73
2021/03/11 06:46:08;;;;;;;40.95;25.55;;;;;;;-0.54;74.98;98689.78;1707791;84;20940;-76
2021/03/11 06:48:38;;;;;;;28.95;19.98;;;;;;;-0.52;75.14;98689.75;1708136;84;20996;-71
2021/03/11 06:51:18;;;;;;;44.15;31.45;;;;;;;-0.51;74.90;98684.45;1707952;84;21501;-73
2021/03/11 06:53:57;;;;;;;48.63;30.70;;;;;;;-0.53;75.19;98686.72;1707739;84;21380;-71
2021/03/11 06:56:26;;;;;;;42.20;31.12;;;;;;;-0.53;74.85;98691.53;1707984;84;20961;-83
2021/03/11 06:59:00;;;;;;;51.45;32.00;;;;;;;-0.47;74.65;98686.14;1707905;82;20952;-83
2021/03/11 07:01:33;;;;;;;48.90;33.63;;;;;;;-0.39;74.74;98680.24;1707381;82;21005;-84
2021/03/11 07:04:05;;;;;;;53.98;34.80;;;;;;;-0.33;74.45;98684.54;1707660;84;21067;-84
2021/03/11 07:06:36;;;;;;;53.65;34.88;;;;;;;-0.26;74.16;98674.72;1707514;84;21385;-86
2021/03/11 07:09:06;;;;;;;51.05;34.43;;;;;;;-0.19;73.84;98677.20;1707679;84;21644;-83
2021/03/11 07:11:36;;;;;;;51.08;32.50;;;;;;;-0.07;73.41;98673.41;1708438;84;20921;-81
2021/03/11 07:14:10;;;;;;;50.80;32.35;;;;;;;0.03;72.85;98670.56;1687018;84;20960;-83
2021/03/11 07:16:51;;;;;;;49.15;33.50;;;;;;;0.10;71.79;98666.89;1707615;84;20897;-83
2021/03/11 07:19:26;;;;;;;;;;;;;;;0.27;71.50;98658.13;1710316;84;22205;-82
2021/03/11 07:21:57;;;;;;;49.13;32.93;;;;;;;0.47;70.58;98655.44;1707577;84;20153;-84
2021/03/11 07:24:37;;;;;;;49.15;31.57;;;;;;;0.68;70.57;98660.20;1707511;84;21020;-82
2021/03/11 07:27:07;;;;;;;50.67;34.88;;;;;;;0.94;69.58;98652.05;1707571;84;21481;-81
2021/03/11 07:29:38;;;;;;;55.60;36.75;;;;;;;1.21;68.53;98651.74;1707618;84;21021;-83
2021/03/11 07:32:07;;;;;;;45.58;33.18;;;;;;;1.47;66.95;98654.58;1707607;84;21819;-80
2021/03/11 07:34:36;;;;;;;45.88;32.80;;;;;;;1.69;66.36;98646.44;1707473;84;20964;-82
2021/03/11 07:37:07;;;;;;;46.37;32.78;;;;;;;1.92;64.92;98652.82;1707521;84;21000;-81
2021/03/11 07:39:40;;;;;;;46.05;33.40;;;;;;;2.15;64.71;98649.01;1707527;84;21510;-81
2021/03/11 07:42:11;;;;;;;44.35;31.20;;;;;;;2.38;63.82;98650.08;1707491;83;21016;-83
2021/03/11 07:44:41;;;;;;;48.17;32.28;;;;;;;2.64;63.48;98651.01;1707580;84;21746;-79
2021/03/11 07:47:11;;;;;;;47.75;34.08;;;;;;;2.87;62.81;98655.08;1704357;84;20968;-82
2021/03/11 07:49:42;;;;;;;47.27;34.83;;;;;;;3.06;62.17;98647.34;1707495;84;21028;-83
2021/03/11 07:52:11;;;;;;;45.25;32.73;;;;;;;3.32;61.88;98643.36;1685855;84;20992;-77
2021/03/11 07:54:40;;;;;;;51.40;36.08;;;;;;;3.50;61.03;98646.69;1707680;84;21445;-83
2021/03/11 07:57:09;;;;;;;53.13;36.53;;;;;;;3.69;60.58;98638.01;1707545;84;21200;-83
2021/03/11 07:59:38;;;;;;;50.75;36.93;;;;;;;3.87;59.44;98637.79;1707479;84;21004;-68
2021/03/11 08:02:16;;;;;;;42.03;31.07;;;;;;;4.05;58.55;98631.77;1663611;84;32728;-82
2021/03/11 08:04:46;;;;;;;44.45;32.20;;;;;;;4.20;57.13;98637.41;1707474;84;20968;-85
2021/03/11 08:07:24;;;;;;;37.13;29.12;;;;;;;4.31;56.65;98626.73;1707882;83;24422;-82
2021/03/11 08:09:58;;;;;;;35.70;28.40;;;;;;;4.43;55.79;98613.86;1707989;83;21326;-82
2021/03/11 08:12:40;;;;;;;37.98;29.27;;;;;;;4.56;55.48;98611.11;1707691;82;21000;-81
2021/03/11 08:15:21;;;;;;;38.25;30.45;;;;;;;4.59;54.86;98612.31;1707767;84;21106;-81
2021/03/11 08:17:49;;;;;;;36.75;27.42;;;;;;;4.70;54.27;98603.41;1707822;84;21006;-82
2021/03/11 08:20:26;;;;;;;38.10;30.12;;;;;;;4.76;54.69;98606.29;1707751;84;21122;-81
2021/03/11 08:23:02;;;;;;;39.03;30.17;;;;;;;4.77;54.42;98608.47;1707818;83;21847;-83
2021/03/11 08:25:38;;;;;;;42.53;30.50;;;;;;;4.83;53.69;98602.89;1707772;84;21015;-81
2021/03/11 08:28:15;;;;;;;38.42;30.95;;;;;;;4.94;54.07;98601.95;1707834;84;21608;-82
2021/03/11 08:30:56;;;;;;;35.40;27.13;;;;;;;5.00;54.41;98596.38;1705083;84;20969;-82
2021/03/11 08:33:30;;;;;;;42.85;30.97;;;;;;;5.00;53.38;98589.72;1707745;84;20957;-84
2021/03/11 08:36:02;;;;;;;40.23;31.12;;;;;;;5.04;54.43;98588.63;1707846;83;21429;-82
2021/03/11 08:38:37;;;;;;;39.50;29.32;;;;;;;5.07;53.67;98581.84;1707812;84;21028;-85
2021/03/11 08:41:11;;;;;;;38.20;30.60;;;;;;;5.16;53.57;98579.73;1707802;84;21521;-80
2021/03/11 08:43:47;;;;;;;33.55;27.13;;;;;;;5.21;52.92;98585.23;1707728;84;21536;-82
2021/03/11 08:46:23;;;;;;;36.83;28.30;;;;;;;5.28;52.65;98577.82;1707777;84;20925;-82
2021/03/11 08:48:58;;;;;;;32.48;25.88;;;;;;;5.32;52.67;98579.91;1707832;84;21474;-82
2021/03/11 08:51:32;;;;;;;34.03;28.25;;;;;;;5.39;51.69;98571.56;1707892;84;23405;-77
2021/03/11 08:54:08;;;;;;;31.60;26.62;;;;;;;5.41;52.14;98571.50;1707991;84;20937;-83
2021/03/11 08:56:41;;;;;;;36.08;28.45;;;;;;;5.36;52.36;98565.05;1708052;84;21462;-83
2021/03/11 08:59:16;;;;;;;34.33;26.82;;;;;;;5.36;52.21;98559.72;1707994;83;21482;-83
2021/03/11 09:01:51;;;;;;;37.53;27.75;;;;;;;5.37;51.79;98560.58;1707905;84;21780;-83
2021/03/11 09:04:30;;;;;;;36.93;27.85;;;;;;;5.36;52.87;98558.39;1707775;82;21446;-83
2021/03/11 09:07:05;;;;;;;33.78;25.15;;;;;;;5.34;52.30;98557.57;1707983;83;21020;-83
2021/03/11 09:09:48;;;;;;;35.70;28.15;;;;;;;5.37;51.90;98556.10;1708022;84;20945;-83
2021/03/11 09:12:25;;;;;;;30.85;25.77;;;;;;;5.30;51.77;98554.67;1708216;82;21052;-85
2021/03/11 09:14:56;;;;;;;30.92;24.85;;;;;;;5.30;52.06;98553.34;1708038;84;21378;-82
2021/03/11 09:17:27;;;;;;;29.60;24.57;;;;;;;5.26;51.50;98545.08;1707958;84;20944;-82
2021/03/11 09:20:06;;;;;;;31.50;24.05;;;;;;;5.29;51.79;98547.61;1708051;84;20961;-82
2021/03/11 09:22:44;;;;;;;32.98;25.57;;;;;;;5.31;51.53;98537.73;1707819;83;20948;-84
2021/03/11 09:25:34;;;;;;;27.77;22.77;;;;;;;5.28;51.66;98531.22;1708054;83;21366;-83
2021/03/11 09:28:03;;;;;;;30.82;22.75;;;;;;;5.32;51.90;98534.15;1708077;84;21841;-83
2021/03/11 09:30:36;;;;;;;25.32;21.77;;;;;;;5.34;51.62;98534.94;1709280;84;20925;-83
2021/03/11 09:33:21;;;;;;;27.13;23.20;;;;;;;5.36;51.34;98538.41;1708730;82;20940;-80
2021/03/11 09:35:51;;;;;;;30.48;22.85;;;;;;;5.34;50.85;98536.74;1707937;84;20940;-82
2021/03/11 09:38:22;;;;;;;33.15;23.20;;;;;;;5.35;51.58;98534.01;1707975;84;21005;-82
2021/03/11 09:40:57;;;;;;;27.13;22.62;;;;;;;5.38;51.83;98533.87;1707944;84;21372;-82
2021/03/11 09:43:30;;;;;;;29.12;22.27;;;;;;;5.37;51.17;98526.80;1707965;83;21378;-81
2021/03/11 09:46:14;;;;;;;33.33;23.32;;;;;;;5.38;51.96;98531.20;1707955;84;21000;-82
2021/03/11 09:48:52;;;;;;;27.52;22.50;;;;;;;5.31;51.40;98527.08;1708122;84;21576;-81
2021/03/11 09:51:28;;;;;;;26.30;22.25;;;;;;;5.27;51.74;98514.86;1707968;84;20988;-82
2021/03/11 09:54:05;;;;;;;28.40;23.35;;;;;;;5.28;51.40;98511.24;1707982;84;21640;-82
2021/03/11 09:56:43;;;;;;;27.73;21.57;;;;;;;5.31;51.94;98516.42;1707993;84;21370;-81
2021/03/11 09:59:15;;;;;;;26.02;21.65;;;;;;;5.28;51.12;98519.71;1708003;83;20906;-82
2021/03/11 10:01:46;;;;;;;27.32;21.55;;;;;;;5.29;50.88;98510.80;1707935;83;21482;-82
2021/03/11 10:04:29;;;;;;;27.30;20.97;;;;;;;5.25;51.99;98502.09;1707929;83;20976;-83
2021/03/11 10:07:00;;;;;;;24.20;21.15;;;;;;;5.23;51.97;98499.95;1707881;84;21219;-82
2021/03/11 10:09:39;;;;;;;26.17;21.55;;;;;;;5.23;50.78;98486.63;1708035;84;21602;-81
2021/03/11 10:12:10;;;;;;;26.52;20.15;;;;;;;5.22;51.19;98484.92;1687049;83;21032;-82
2021/03/11 10:14:38;;;;;;;24.32;21.33;;;;;;;5.23;51.49;98486.63;1707854;84;21008;-82
2021/03/11 10:17:06;;;;;;;27.40;21.40;;;;;;;5.19;50.38;98477.08;1707943;83;20953;-82
2021/03/11 10:19:37;;;;;;;23.38;20.02;;;;;;;5.18;51.57;98474.86;1707929;84;21224;-84
2021/03/11 10:22:16;;;;;;;22.35;19.27;;;;;;;5.17;51.25;98470.94;1707896;84;21489;-82
2021/03/11 10:24:50;;;;;;;28.10;20.82;;;;;;;5.17;50.53;98466.50;1707945;84;20969;-82
2021/03/11 10:27:28;;;;;;;26.30;21.25;;;;;;;5.17;50.97;98473.59;1708049;84;20960;-82
2021/03/11 10:30:04;;;;;;;27.65;20.57;;;;;;;5.14;52.08;98471.08;1709193;84;20936;-82
2021/03/11 10:32:32;;;;;;;21.48;19.12;;;;;;;5.09;50.92;98465.11;1708923;83;21378;-82
2021/03/11 10:35:16;;;;;;;25.12;20.12;;;;;;;5.09;51.82;98470.43;1707927;84;20973;-81
2021/03/11 10:37:44;;;;;;;26.52;22.52;;;;;;;5.05;51.54;98466.58;1706953;84;20941;-82
2021/03/11 10:40:17;;;;;;;25.72;19.90;;;;;;;5.03;52.33;98467.56;1707902;84;20929;-82
2021/03/11 10:42:48;;;;;;;26.33;21.50;;;;;;;5.02;52.46;98457.40;1687227;84;20956;-82
2021/03/11 10:45:20;;;;;;;24.40;20.23;;;;;;;5.02;51.87;98450.75;1707890;84;21274;-81
2021/03/11 10:48:05;;;;;;;27.80;20.02;;;;;;;5.03;51.63;98452.48;1707850;84;21016;-81
2021/03/11 10:50:46;;;;;;;26.45;20.60;;;;;;;5.03;51.77;98445.83;1708111;84;21548;-78
2021/03/11 10:53:14;;;;;;;24.47;19.55;;;;;;;4.97;51.00;98440.78;1707594;83;20940;-79
2021/03/11 10:55:44;;;;;;;24.90;19.48;;;;;;;5.00;52.28;98437.98;1708082;84;20940;-78
2021/03/11 10:58:23;;;;;;;25.00;21.12;;;;;;;4.99;50.67;98436.24;1707917;84;21096;-79
2021/03/11 11:01:17;;;;;;;28.73;20.37;;;;;;;4.99;51.25;98424.27;1707030;84;21406;-79
2021/03/11 11:03:47;;;;;;;30.02;21.95;;;;;;;4.99;52.27;98424.74;1707972;84;21473;-80
2021/03/11 11:06:24;;;;;;;28.23;19.55;;;;;;;4.98;51.83;98422.55;1707581;84;20957;-80
2021/03/11 11:08:52;;;;;;;26.77;19.02;;;;;;;4.96;51.94;98413.75;1707697;84;20961;-81
2021/03/11 11:11:22;;;;;;;25.35;20.35;;;;;;;4.98;52.13;98413.24;1707614;84;21374;-79
2021/03/11 11:13:51;;;;;;;27.00;20.12;;;;;;;4.97;51.90;98404.84;1707591;84;21027;-80
2021/03/11 11:16:20;;;;;;;27.48;20.00;;;;;;;4.97;52.45;98395.53;1707575;84;20957;-81
2021/03/11 11:18:48;;;;;;;26.80;20.52;;;;;;;4.97;53.07;98388.88;1707704;84;21537;-79
2021/03/11 11:21:17;;;;;;;25.08;19.05;;;;;;;5.00;52.74;98390.06;1707691;84;21063;-81
2021/03/11 11:23:44;;;;;;;25.57;20.05;;;;;;;5.05;51.81;98390.70;1707597;84;21781;-79
2021/03/11 11:26:13;;;;;;;22.80;19.15;;;;;;;5.08;51.80;98377.73;1707542;84;20929;-79
2021/03/11 11:28:40;;;;;;;21.77;19.40;;;;;;;5.10;51.22;98371.86;1707548;84;21020;-81
2021/03/11 11:31:07;;;;;;;21.85;18.82;;;;;;;5.13;51.51;98377.52;1707601;84;21336;-81
2021/03/11 11:33:37;;;;;;;19.00;17.00;;;;;;;5.18;50.47;98374.16;1707553;83;21087;-82
2021/03/11 11:36:05;;;;;;;23.25;18.57;;;;;;;5.21;51.86;98362.02;1707772;84;21831;-80
2021/03/11 11:38:33;;;;;;;22.13;19.07;;;;;;;5.20;50.32;98353.63;1707680;84;21406;-79
2021/03/11 11:41:05;;;;;;;23.25;18.10;;;;;;;5.22;51.75;98348.64;1707589;84;20945;-79
2021/03/11 11:43:32;;;;;;;26.65;18.70;;;;;;;5.28;51.10;98350.59;1707507;84;20968;-79